Time;durP1;ratioP1;P1;durP2;ratioP2;P2;SDS_P1;SDS_P2;PMS_P1;PMS_P2;Temp;Humidity;BMP_temperature;BMP_pressure;BME280_temperature;BME280_humidity;BME280_pressure;Samples;Min_cycle;Max_cycle;Signal;HPM_P1;HPM_P2
2023/05/25 00:01:47;;;;;;;9.60;8.57;;;;;;;16.26;100.00;100504.41;5527349;32;33961;-69
2023/05/25 00:04:54;;;;;;;11.10;8.93;;;;;;;16.27;100.00;100505.22;5526561;32;34135;-69
2023/05/25 00:08:01;;;;;;;9.85;8.85;;;;;;;16.20;100.00;100512.41;5527456;32;34011;-70
2023/05/25 00:11:07;;;;;;;12.63;9.50;;;;;;;15.99;100.00;100508.00;5527309;32;34125;-70
2023/05/25 00:14:14;;;;;;;10.52;9.20;;;;;;;15.96;100.00;100511.09;5527117;32;34703;-70
2023/05/25 00:17:21;;;;;;;10.90;8.77;;;;;;;16.04;100.00;100508.22;5527172;32;34778;-70
2023/05/25 00:20:27;;;;;;;10.23;9.02;;;;;;;16.12;100.00;100513.41;5527071;32;33974;-70
2023/05/25 00:23:35;;;;;;;13.32;9.23;;;;;;;16.01;100.00;100508.66;5526970;32;33906;-70
2023/05/25 00:26:41;;;;;;;14.10;9.80;;;;;;;15.97;100.00;100510.06;5527069;32;34177;-69
2023/05/25 00:29:50;;;;;;;13.00;9.23;;;;;;;15.90;100.00;100512.72;5527034;32;34619;-70
2023/05/25 00:32:58;;;;;;;11.18;9.57;;;;;;;15.87;100.00;100512.28;5526784;32;34890;-70
2023/05/25 00:36:07;;;;;;;15.27;10.13;;;;;;;16.01;100.00;100522.03;5526826;32;33836;-70
2023/05/25 00:39:18;;;;;;;14.07;9.68;;;;;;;15.89;100.00;100516.41;5526693;32;34144;-70
2023/05/25 00:42:24;;;;;;;12.98;9.15;;;;;;;15.83;100.00;100514.50;5525892;32;35084;-70
2023/05/25 00:45:30;;;;;;;14.52;9.73;;;;;;;15.83;100.00;100519.06;5526613;32;34130;-70
2023/05/25 00:48:38;;;;;;;12.27;10.30;;;;;;;15.77;100.00;100526.03;5526567;32;34103;-70
2023/05/25 00:51:45;;;;;;;14.50;9.93;;;;;;;15.83;100.00;100527.88;5526815;32;34273;-70
2023/05/25 00:54:54;;;;;;;15.13;9.90;;;;;;;15.84;100.00;100529.56;5529189;32;34859;-70
2023/05/25 00:58:05;;;;;;;10.82;9.35;;;;;;;15.94;100.00;100537.22;5529715;32;34308;-70
2023/05/25 01:01:14;;;;;;;11.12;9.57;;;;;;;15.83;100.00;100535.13;5529326;32;34022;-70
2023/05/25 01:04:22;;;;;;;13.23;9.85;;;;;;;15.80;100.00;100539.00;5528420;32;34010;-69
2023/05/25 01:07:31;;;;;;;12.45;10.32;;;;;;;15.89;100.00;100536.97;5529252;32;34081;-69
2023/05/25 01:10:41;;;;;;;16.23;9.85;;;;;;;15.66;100.00;100539.94;5528373;32;34131;-70
2023/05/25 01:13:53;;;;;;;17.15;10.40;;;;;;;15.54;100.00;100547.69;5529040;32;34016;-70
2023/05/25 01:17:02;;;;;;;14.73;10.57;;;;;;;15.43;100.00;100544.72;5529099;32;34094;-70
2023/05/25 01:20:09;;;;;;;12.82;10.57;;;;;;;15.22;100.00;100542.91;5528299;32;33725;-69
2023/05/25 01:23:19;;;;;;;16.08;11.07;;;;;;;15.15;100.00;100542.03;5529074;32;34695;-70
2023/05/25 01:26:30;;;;;;;15.32;11.63;;;;;;;15.04;100.00;100547.91;5528446;32;34807;-70
2023/05/25 01:29:41;;;;;;;11.60;10.38;;;;;;;15.07;100.00;100545.66;5529066;32;33979;-70
2023/05/25 01:32:49;;;;;;;14.20;11.30;;;;;;;14.96;100.00;100546.16;5528955;32;33995;-70
2023/05/25 01:35:57;;;;;;;14.38;10.50;;;;;;;14.91;100.00;100550.47;5528921;32;34683;-70
2023/05/25 01:39:05;;;;;;;12.60;10.98;;;;;;;14.84;100.00;100549.56;5528535;32;34315;-70
2023/05/25 01:42:10;;;;;;;13.48;10.95;;;;;;;14.84;100.00;100553.06;5529297;32;33996;-70
2023/05/25 01:45:16;;;;;;;13.38;10.65;;;;;;;14.84;100.00;100557.56;5528924;32;34428;-70
2023/05/25 01:48:42;;;;;;;14.15;10.90;;;;;;;14.85;100.00;100552.06;5528915;32;33915;-69
2023/05/25 01:52:12;;;;;;;12.13;10.80;;;;;;;14.96;100.00;100554.19;5528054;32;33900;-68
2023/05/25 01:55:19;;;;;;;;;;;;;;;15.03;100.00;100557.75;5528893;32;34143;-70
2023/05/25 01:58:34;;;;;;;15.32;11.38;;;;;;;15.01;100.00;100550.94;5528142;32;34214;-69
2023/05/25 02:01:42;;;;;;;21.02;11.07;;;;;;;14.98;100.00;100549.50;5527985;32;35248;-69
2023/05/25 02:04:54;;;;;;;16.00;12.18;;;;;;;14.87;100.00;100552.66;5528742;32;34526;-70
2023/05/25 02:08:03;;;;;;;15.60;11.65;;;;;;;14.68;100.00;100553.31;5528851;32;34133;-70
2023/05/25 02:11:13;;;;;;;14.82;12.13;;;;;;;14.55;100.00;100559.34;5528695;32;35029;-70
2023/05/25 02:14:19;;;;;;;13.95;11.32;;;;;;;14.53;100.00;100547.19;5528490;32;34213;-70
2023/05/25 02:17:26;;;;;;;14.18;11.07;;;;;;;14.49;100.00;100551.25;5528636;32;34650;-70
2023/05/25 02:20:35;;;;;;;13.85;11.70;;;;;;;14.40;100.00;100555.06;5527871;32;34350;-70
2023/05/25 02:23:42;;;;;;;15.05;11.45;;;;;;;14.34;100.00;100556.59;5528604;32;34052;-70
2023/05/25 02:26:50;;;;;;;17.10;11.95;;;;;;;14.30;100.00;100555.31;5528565;32;34668;-69
2023/05/25 02:29:57;;;;;;;13.35;11.55;;;;;;;14.30;100.00;100563.31;5528483;32;34041;-70
2023/05/25 02:33:05;;;;;;;15.35;12.07;;;;;;;14.45;100.00;100563.31;5527713;32;34493;-70
2023/05/25 02:36:11;;;;;;;16.98;12.95;;;;;;;14.40;100.00;100563.06;5528346;32;34180;-70
2023/05/25 02:39:20;;;;;;;15.93;11.88;;;;;;;14.32;100.00;100572.81;5528454;32;34851;-70
2023/05/25 02:42:26;;;;;;;21.23;12.88;;;;;;;14.26;100.00;100565.56;5528571;32;35055;-70
2023/05/25 02:45:32;;;;;;;16.95;12.60;;;;;;;14.20;100.00;100570.78;5528593;32;34567;-70
2023/05/25 02:48:42;;;;;;;14.82;12.37;;;;;;;14.26;100.00;100578.06;5528286;32;34716;-70
2023/05/25 02:51:51;;;;;;;16.37;12.90;;;;;;;14.29;100.00;100580.34;5528390;32;34072;-69
2023/05/25 02:54:56;;;;;;;16.23;12.55;;;;;;;14.35;100.00;100568.94;5528424;32;34749;-70
2023/05/25 02:58:03;;;;;;;16.25;12.32;;;;;;;14.26;100.00;100575.41;5528408;32;33877;-70
2023/05/25 03:01:16;;;;;;;17.90;12.80;;;;;;;14.27;100.00;100577.06;5528414;32;34035;-70
2023/05/25 03:04:23;;;;;;;14.35;12.30;;;;;;;14.22;100.00;100569.63;5527337;32;34183;-69
2023/05/25 03:07:32;;;;;;;16.55;11.68;;;;;;;14.27;100.00;100579.72;5527494;32;33966;-70
2023/05/25 03:10:38;;;;;;;13.00;11.63;;;;;;;14.30;100.00;100571.34;5528267;32;34215;-70
2023/05/25 03:13:49;;;;;;;13.88;11.95;;;;;;;14.21;100.00;100583.13;5528177;32;34033;-69
2023/05/25 03:16:56;;;;;;;14.60;11.82;;;;;;;14.26;100.00;100580.72;5527512;32;33823;-69
2023/05/25 03:20:04;;;;;;;16.50;12.45;;;;;;;14.28;100.00;100582.19;5528113;32;34935;-70
2023/05/25 03:23:11;;;;;;;16.90;12.57;;;;;;;14.27;100.00;100591.22;5528467;32;33966;-69
2023/05/25 03:26:17;;;;;;;14.70;12.48;;;;;;;14.22;100.00;100604.31;5528073;32;34071;-69
2023/05/25 03:29:25;;;;;;;17.87;12.70;;;;;;;14.23;100.00;100597.94;5528051;32;34104;-70
2023/05/25 03:32:33;;;;;;;18.67;13.45;;;;;;;14.23;100.00;100587.25;5528007;32;34099;-70
2023/05/25 03:35:39;;;;;;;17.70;13.68;;;;;;;14.31;100.00;100591.69;5526957;32;33707;-69
2023/05/25 03:38:45;;;;;;;19.67;13.02;;;;;;;14.34;100.00;100591.28;5527741;32;34289;-70
2023/05/25 03:41:51;;;;;;;16.40;12.63;;;;;;;14.40;100.00;100587.91;5527800;32;34565;-69
2023/05/25 03:44:58;;;;;;;16.05;12.70;;;;;;;14.40;100.00;100592.41;5527626;32;34327;-69
2023/05/25 03:48:05;;;;;;;20.73;12.15;;;;;;;14.49;100.00;100593.97;5526809;32;34785;-68
2023/05/25 03:51:12;;;;;;;18.23;13.15;;;;;;;14.52;100.00;100589.09;5527644;32;34629;-69
2023/05/25 03:54:17;;;;;;;14.90;12.07;;;;;;;14.62;100.00;100602.16;5520778;32;34038;-69
2023/05/25 03:57:22;;;;;;;16.12;11.73;;;;;;;14.77;100.00;100600.22;5527311;32;34883;-68
2023/05/25 04:00:29;;;;;;;17.12;12.75;;;;;;;14.76;100.00;100593.25;5527449;32;33856;-71
2023/05/25 04:03:35;;;;;;;14.43;12.25;;;;;;;14.63;100.00;100604.59;5527475;32;34122;-68
2023/05/25 04:06:47;;;;;;;14.77;12.40;;;;;;;14.55;100.00;100612.75;5527700;32;34163;-68
2023/05/25 04:09:54;;;;;;;17.15;12.60;;;;;;;14.75;100.00;100611.13;5527343;32;33858;-68
2023/05/25 04:13:01;;;;;;;20.42;12.73;;;;;;;14.68;100.00;100612.03;5527200;32;34170;-69
2023/05/25 04:16:08;;;;;;;16.05;12.25;;;;;;;14.92;100.00;100611.69;5527046;32;33811;-69
2023/05/25 04:19:15;;;;;;;15.73;10.95;;;;;;;15.08;100.00;100615.97;5526046;32;33872;-69
2023/05/25 04:22:22;;;;;;;13.77;11.25;;;;;;;15.30;100.00;100625.59;5527021;32;34244;-70
2023/05/25 04:25:30;;;;;;;13.82;11.10;;;;;;;15.43;100.00;100625.75;5527002;32;34003;-69
2023/05/25 04:28:39;;;;;;;14.48;11.00;;;;;;;15.74;100.00;100621.88;5528858;32;34428;-69
2023/05/25 04:31:48;;;;;;;16.80;10.70;;;;;;;16.12;100.00;100627.69;5529591;32;34496;-69
2023/05/25 04:34:57;;;;;;;14.57;10.60;;;;;;;16.32;100.00;100623.25;5529539;32;34011;-69
2023/05/25 04:38:05;;;;;;;13.70;10.68;;;;;;;16.40;100.00;100631.13;5529629;32;34459;-68
2023/05/25 04:41:13;;;;;;;15.35;9.85;;;;;;;16.46;100.00;100636.50;5529372;32;34396;-69
2023/05/25 04:44:21;;;;;;;15.48;10.15;;;;;;;16.33;100.00;100641.78;5529577;32;34752;-69
2023/05/25 04:47:29;;;;;;;27.20;10.65;;;;;;;16.53;100.00;100633.84;5528819;32;34074;-69
2023/05/25 04:50:38;;;;;;;12.55;9.10;;;;;;;16.62;100.00;100634.53;5535274;32;34811;-69
2023/05/25 04:53:45;;;;;;;12.68;10.30;;;;;;;16.72;100.00;100635.78;5548424;32;35499;-69
2023/05/25 04:56:52;;;;;;;15.55;9.65;;;;;;;16.41;100.00;100636.25;5548455;32;34887;-68
2023/05/25 04:59:57;;;;;;;13.10;9.40;;;;;;;16.63;100.00;100631.66;5549436;32;33829;-68
2023/05/25 05:03:02;;;;;;;11.55;9.95;;;;;;;16.50;100.00;100636.94;5547639;32;33940;-68
2023/05/25 05:06:07;;;;;;;14.75;10.18;;;;;;;16.29;100.00;100637.03;5548603;32;33847;-68
2023/05/25 05:09:15;;;;;;;12.15;9.77;;;;;;;16.29;100.00;100639.72;5548422;32;34183;-69
2023/05/25 05:12:22;;;;;;;16.52;10.18;;;;;;;16.38;100.00;100647.37;5548148;32;34340;-69
2023/05/25 05:15:27;;;;;;;14.50;9.75;;;;;;;16.34;100.00;100642.62;5548321;32;34057;-69
2023/05/25 05:18:35;;;;;;;17.92;9.52;;;;;;;16.43;100.00;100646.78;5548176;32;34852;-69
2023/05/25 05:21:40;;;;;;;12.82;9.90;;;;;;;16.56;100.00;100649.50;5547367;32;33866;-69
2023/05/25 05:24:46;;;;;;;12.45;9.27;;;;;;;16.79;100.00;100643.87;5548321;32;34308;-69
2023/05/25 05:27:50;;;;;;;16.40;9.18;;;;;;;16.88;100.00;100642.66;5547358;32;34120;-69
2023/05/25 05:30:54;;;;;;;13.80;9.15;;;;;;;16.98;100.00;100648.44;5547309;32;34155;-69
2023/05/25 05:33:57;;;;;;;26.60;9.35;;;;;;;17.08;100.00;100648.06;5537133;32;34086;-69
2023/05/25 05:37:01;;;;;;;10.65;8.73;;;;;;;17.36;100.00;100648.72;5547931;32;33877;-70
2023/05/25 05:40:06;;;;;;;14.95;8.52;;;;;;;17.46;100.00;100648.31;5530362;32;34930;-68
2023/05/25 05:43:11;;;;;;;12.50;8.43;;;;;;;17.61;100.00;100644.41;5532359;32;34027;-70
2023/05/25 05:46:15;;;;;;;13.45;8.30;;;;;;;17.69;100.00;100646.87;5530080;32;34759;-70
2023/05/25 05:49:19;;;;;;;19.08;9.13;;;;;;;17.86;100.00;100641.09;5528230;32;34823;-70
2023/05/25 05:52:23;;;;;;;14.87;8.70;;;;;;;17.91;100.00;100646.66;5527147;32;34421;-70
2023/05/25 05:55:26;;;;;;;14.40;8.65;;;;;;;17.97;100.00;100652.00;5528285;32;34259;-70
2023/05/25 05:58:31;;;;;;;11.73;8.50;;;;;;;17.94;100.00;100657.81;5535243;32;33864;-69
2023/05/25 06:01:35;;;;;;;11.70;8.77;;;;;;;17.90;100.00;100661.94;5534608;32;34778;-71
2023/05/25 06:04:40;;;;;;;17.23;8.63;;;;;;;18.11;100.00;100659.00;5528188;32;34436;-69
2023/05/25 06:07:44;;;;;;;12.18;7.95;;;;;;;18.22;100.00;100669.09;5528271;32;33913;-69
2023/05/25 06:10:49;;;;;;;16.00;8.98;;;;;;;18.52;100.00;100669.44;5527952;32;34577;-69
2023/05/25 06:13:53;;;;;;;11.10;7.70;;;;;;;18.49;100.00;100666.34;5528766;32;34127;-69
2023/05/25 06:16:57;;;;;;;29.35;8.68;;;;;;;18.33;100.00;100662.25;5528325;32;34573;-69
2023/05/25 06:20:01;;;;;;;16.05;8.50;;;;;;;18.57;100.00;100669.66;5528432;32;34146;-69
2023/05/25 06:23:08;;;;;;;14.27;8.30;;;;;;;18.84;100.00;100669.50;5534206;32;34196;-68
2023/05/25 06:26:11;;;;;;;11.55;7.90;;;;;;;18.80;100.00;100663.75;5547490;32;34624;-70
2023/05/25 06:29:15;;;;;;;11.75;7.60;;;;;;;18.84;100.00;100664.97;5540744;32;34129;-68
2023/05/25 06:32:20;;;;;;;13.73;7.90;;;;;;;18.87;100.00;100671.78;5528308;32;34046;-70
2023/05/25 06:35:24;;;;;;;11.48;7.65;;;;;;;18.95;100.00;100669.66;5527672;32;34523;-69
2023/05/25 06:38:28;;;;;;;9.50;7.10;;;;;;;19.22;100.00;100667.63;5531816;32;34339;-70
2023/05/25 06:41:33;;;;;;;10.85;7.72;;;;;;;19.28;100.00;100661.38;5534579;32;34041;-71
2023/05/25 06:44:36;;;;;;;8.52;6.85;;;;;;;19.63;100.00;100659.09;5545797;32;34395;-69
2023/05/25 06:47:41;;;;;;;10.60;6.75;;;;;;;19.42;100.00;100672.88;5545686;32;34174;-69
2023/05/25 06:50:45;;;;;;;11.82;6.05;;;;;;;19.67;100.00;100678.31;5543397;32;34144;-69
2023/05/25 06:53:49;;;;;;;7.68;6.43;;;;;;;19.80;100.00;100680.91;5547425;32;34085;-68
2023/05/25 06:56:53;;;;;;;12.80;6.68;;;;;;;19.68;100.00;100677.25;5549271;32;34041;-69
2023/05/25 06:59:56;;;;;;;8.40;6.30;;;;;;;19.80;100.00;100679.00;5547140;32;34138;-69
2023/05/25 07:03:00;;;;;;;12.63;6.82;;;;;;;20.03;100.00;100680.25;5547366;32;34036;-70
2023/05/25 07:06:05;;;;;;;10.00;6.50;;;;;;;20.09;100.00;100679.38;5547416;32;33410;-70
2023/05/25 07:09:09;;;;;;;10.20;6.20;;;;;;;19.93;100.00;100687.00;5547323;32;34205;-69
2023/05/25 07:12:13;;;;;;;6.97;5.60;;;;;;;20.21;100.00;100683.81;5546637;32;35704;-68
2023/05/25 07:15:17;;;;;;;11.23;6.03;;;;;;;20.24;100.00;100693.28;5545537;32;33803;-68
2023/05/25 07:18:21;;;;;;;9.65;6.20;;;;;;;20.33;100.00;100690.12;5527776;32;34935;-70
2023/05/25 07:21:24;;;;;;;10.63;5.65;;;;;;;20.75;100.00;100693.78;5539661;32;34685;-71
2023/05/25 07:24:28;;;;;;;9.95;6.00;;;;;;;20.94;100.00;100693.75;5547364;32;33752;-70
2023/05/25 07:27:32;;;;;;;7.53;5.35;;;;;;;21.28;100.00;100697.66;5547381;32;34041;-70
2023/05/25 07:30:35;;;;;;;8.15;5.37;;;;;;;21.56;100.00;100698.69;5547028;32;34068;-72
2023/05/25 07:33:39;;;;;;;11.93;5.68;;;;;;;23.00;85.37;100690.81;5546980;32;34073;-70
2023/05/25 07:36:43;;;;;;;7.10;5.00;;;;;;;22.61;85.82;100689.78;5546633;32;34138;-70
2023/05/25 07:39:49;;;;;;;6.72;4.60;;;;;;;23.66;78.92;100701.81;5546596;32;34685;-70
2023/05/25 07:42:53;;;;;;;7.12;5.00;;;;;;;22.84;81.89;100693.25;5546822;32;34644;-70
2023/05/25 07:45:56;;;;;;;7.20;5.07;;;;;;;23.67;77.71;100691.81;5546764;32;34141;-70
2023/05/25 07:49:02;;;;;;;11.40;5.00;;;;;;;24.14;75.79;100695.78;5546966;32;35396;-69
2023/05/25 07:52:05;;;;;;;7.90;4.45;;;;;;;23.74;72.41;100697.84;5546629;32;34223;-69
2023/05/25 07:55:09;;;;;;;4.43;4.03;;;;;;;24.56;70.37;100690.69;5546178;32;33768;-67
2023/05/25 07:58:13;;;;;;;8.75;4.80;;;;;;;25.06;65.55;100701.34;5546816;32;33829;-68
2023/05/25 08:01:17;;;;;;;44.00;5.57;;;;;;;25.96;59.93;100697.81;5547772;32;34087;-70
2023/05/25 08:04:21;;;;;;;9.25;5.07;;;;;;;25.32;62.16;100701.59;5549128;32;34761;-70
2023/05/25 08:07:26;;;;;;;7.30;4.78;;;;;;;25.78;59.86;100703.66;5548863;32;34811;-69
2023/05/25 08:10:31;;;;;;;8.20;4.87;;;;;;;26.25;57.17;100698.28;5547898;32;34253;-69
2023/05/25 08:13:34;;;;;;;8.52;4.43;;;;;;;25.12;60.23;100698.69;5549014;32;33822;-69
2023/05/25 08:16:37;;;;;;;11.65;4.72;;;;;;;25.32;61.72;100696.97;5547789;32;35070;-69
2023/05/25 08:19:40;;;;;;;8.88;5.03;;;;;;;26.99;57.14;100697.28;5548967;32;34168;-69
2023/05/25 08:22:44;;;;;;;6.32;4.78;;;;;;;25.98;57.31;100691.31;5548562;32;35338;-68
2023/05/25 08:25:46;;;;;;;9.40;4.75;;;;;;;25.64;60.03;100691.59;5548619;32;34209;-68
2023/05/25 08:28:51;;;;;;;8.52;4.37;;;;;;;25.77;57.52;100701.19;5548178;32;34026;-69
2023/05/25 08:31:54;;;;;;;5.62;4.22;;;;;;;24.86;59.63;100703.78;5548631;32;34129;-71
2023/05/25 08:34:58;;;;;;;7.85;4.32;;;;;;;25.66;58.47;100702.22;5548660;32;33968;-71
2023/05/25 08:38:03;;;;;;;12.27;4.32;;;;;;;26.25;55.46;100697.47;5529839;32;34166;-69
2023/05/25 08:41:06;;;;;;;9.75;4.03;;;;;;;25.78;57.66;100703.66;5528002;32;34454;-69
2023/05/25 08:44:10;;;;;;;8.18;4.20;;;;;;;26.02;55.13;100695.13;5528490;32;34206;-69
2023/05/25 08:47:15;;;;;;;12.18;4.57;;;;;;;26.15;55.78;100698.19;5532035;32;33932;-70
2023/05/25 08:50:19;;;;;;;6.55;4.65;;;;;;;27.06;54.87;100697.84;5528149;32;34084;-69
2023/05/25 08:53:24;;;;;;;11.52;4.10;;;;;;;27.84;51.87;100698.47;5528747;32;35068;-69
2023/05/25 08:56:33;;;;;;;6.40;4.47;;;;;;;28.33;50.57;100698.69;5529020;32;34624;-69
2023/05/25 08:59:42;;;;;;;11.52;4.68;;;;;;;28.46;49.48;100698.13;5528894;32;33786;-70
2023/05/25 09:02:55;;;;;;;6.62;4.20;;;;;;;29.19;46.84;100703.78;5528852;32;34287;-69
2023/05/25 09:06:00;;;;;;;8.00;4.90;;;;;;;28.02;49.19;100704.19;5528706;32;34268;-69
2023/05/25 09:09:04;;;;;;;5.65;4.60;;;;;;;27.68;50.37;100703.12;5533681;32;34161;-69
2023/05/25 09:12:09;;;;;;;22.67;5.37;;;;;;;27.39;51.86;100696.53;5548116;32;33823;-69
2023/05/25 09:15:12;;;;;;;7.28;4.90;;;;;;;26.86;53.86;100698.63;5547345;32;34875;-71
2023/05/25 09:18:15;;;;;;;7.32;5.07;;;;;;;25.96;57.89;100692.38;5548788;32;34037;-69
2023/05/25 09:21:19;;;;;;;14.63;5.53;;;;;;;25.79;58.33;100701.78;5548553;32;34628;-70
2023/05/25 09:24:23;;;;;;;9.80;5.18;;;;;;;27.83;53.81;100689.50;5540115;32;34747;-69
2023/05/25 09:27:26;;;;;;;8.55;5.07;;;;;;;27.46;52.93;100695.19;5546853;32;35207;-69
2023/05/25 09:30:32;;;;;;;9.95;5.20;;;;;;;26.30;56.48;100695.59;5546112;32;34158;-69
2023/05/25 09:33:39;;;;;;;8.07;5.12;;;;;;;26.54;56.17;100696.00;5545458;32;34275;-70
2023/05/25 09:36:42;;;;;;;6.82;5.68;;;;;;;26.89;56.07;100695.34;5527515;32;34567;-70
2023/05/25 09:39:46;;;;;;;17.45;5.82;;;;;;;28.12;51.30;100694.37;5527395;32;35191;-69
2023/05/25 09:42:49;;;;;;;8.48;5.28;;;;;;;30.34;48.18;100698.44;5537098;32;34634;-69
2023/05/25 09:45:53;;;;;;;10.45;5.50;;;;;;;29.26;48.73;100713.28;5552646;32;34464;-69
2023/05/25 09:48:59;;;;;;;8.75;5.28;;;;;;;27.12;53.12;100703.03;5550453;32;34886;-69
2023/05/25 09:52:08;;;;;;;8.15;5.43;;;;;;;27.52;52.63;100704.22;5540878;32;33285;-70
2023/05/25 09:55:15;;;;;;;9.23;5.70;;;;;;;26.38;55.73;100702.47;5541436;32;34747;-69
2023/05/25 09:58:17;;;;;;;9.02;5.50;;;;;;;26.68;56.20;100697.13;5546625;32;34159;-69
2023/05/25 10:01:22;;;;;;;7.22;5.53;;;;;;;26.50;57.07;100704.94;5531517;32;34004;-69
2023/05/25 10:04:26;;;;;;;13.10;5.95;;;;;;;25.76;60.40;100700.38;5531756;32;34880;-71
2023/05/25 10:07:30;;;;;;;7.07;5.40;;;;;;;27.03;57.77;100710.09;5528826;32;34586;-69
2023/05/25 10:10:34;;;;;;;8.48;5.53;;;;;;;27.35;54.59;100701.72;5528876;32;34253;-70
2023/05/25 10:13:38;;;;;;;11.38;5.60;;;;;;;29.08;50.54;100708.50;5515202;32;34185;-70
2023/05/25 10:16:46;;;;;;;9.98;4.97;;;;;;;27.14;55.06;100700.03;5528155;32;34067;-71
2023/05/25 10:19:56;;;;;;;5.18;4.37;;;;;;;30.08;48.67;100697.06;5527399;32;35162;-69
2023/05/25 10:23:02;;;;;;;9.77;5.07;;;;;;;30.48;44.91;100698.59;5526693;32;34811;-69
2023/05/25 10:26:07;;;;;;;7.00;4.50;;;;;;;28.25;50.95;100691.91;5527670;32;34065;-71
2023/05/25 10:29:13;;;;;;;8.57;4.65;;;;;;;30.34;45.59;100694.87;5541656;32;35162;-69
2023/05/25 10:32:17;;;;;;;4.65;4.07;;;;;;;28.64;49.10;100689.31;5544827;32;33837;-69
2023/05/25 10:35:24;;;;;;;9.57;4.10;;;;;;;28.81;48.64;100687.06;5544683;32;34117;-70
2023/05/25 10:38:30;;;;;;;8.80;4.20;;;;;;;29.93;45.98;100689.00;5543056;32;33474;-70
2023/05/25 10:41:33;;;;;;;4.72;4.03;;;;;;;32.85;40.41;100684.78;5541704;32;34091;-68
2023/05/25 10:44:40;;;;;;;11.52;4.60;;;;;;;29.33;46.98;100686.50;5547592;32;32503;-70
2023/05/25 10:47:47;;;;;;;7.40;4.70;;;;;;;28.13;50.95;100676.94;5537927;32;33884;-69
2023/05/25 10:50:51;;;;;;;6.75;4.10;;;;;;;26.69;55.00;100677.00;5527788;32;34807;-70
2023/05/25 10:54:00;;;;;;;6.25;3.72;;;;;;;29.53;46.81;100676.50;5527819;32;34061;-70
2023/05/25 10:57:18;;;;;;;6.10;3.80;;;;;;;31.02;42.99;100677.09;5528035;32;34219;-70
2023/05/25 11:00:22;;;;;;;4.95;3.60;;;;;;;30.01;44.04;100672.81;5531880;32;34138;-70
2023/05/25 11:03:43;;;;;;;5.72;3.17;;;;;;;31.76;40.56;100677.28;5527768;32;34007;-72
2023/05/25 11:06:46;;;;;;;6.00;3.83;;;;;;;32.48;40.01;100670.16;5528039;32;35069;-73
2023/05/25 11:09:57;;;;;;;14.45;3.80;;;;;;;30.22;42.51;100652.31;5527952;32;33918;-69
2023/05/25 11:13:20;;;;;;;7.80;4.22;;;;;;;30.01;45.25;100655.56;5541160;32;34176;-70
2023/05/25 11:16:34;;;;;;;12.95;3.95;;;;;;;28.45;48.57;100655.53;5546930;32;33943;-69
2023/05/25 11:19:42;;;;;;;5.28;3.60;;;;;;;28.06;50.39;100650.72;5546083;32;34233;-68
2023/05/25 11:22:45;;;;;;;5.97;3.50;;;;;;;28.58;46.78;100651.38;5547232;32;34178;-68
2023/05/25 11:25:48;;;;;;;6.85;4.18;;;;;;;27.19;50.24;100643.69;5546604;32;34175;-68
2023/05/25 11:28:52;;;;;;;19.70;5.20;;;;;;;30.40;44.60;100648.00;5546513;32;33818;-69
2023/05/25 11:31:55;;;;;;;10.50;3.55;;;;;;;31.54;41.03;100642.25;5546551;32;34746;-69
2023/05/25 11:34:58;;;;;;;7.18;3.62;;;;;;;33.73;38.25;100655.75;5546470;32;34516;-73
2023/05/25 11:38:05;;;;;;;6.55;3.75;;;;;;;35.23;36.20;100644.22;5545883;32;33841;-69
2023/05/25 11:41:15;;;;;;;4.65;3.85;;;;;;;35.43;34.42;100652.94;5546579;32;34274;-71
2023/05/25 11:44:30;;;;;;;5.53;3.28;;;;;;;31.23;40.87;100639.19;5547949;32;34162;-69
2023/05/25 11:47:33;;;;;;;7.87;3.60;;;;;;;32.42;39.58;100643.09;5545874;32;33998;-68
2023/05/25 11:50:38;;;;;;;3.83;3.35;;;;;;;31.44;41.19;100632.28;5545549;32;34166;-69
2023/05/25 11:53:42;;;;;;;8.48;4.20;;;;;;;33.55;38.12;100630.06;5546586;32;34057;-71
2023/05/25 11:56:45;;;;;;;5.22;3.40;;;;;;;31.71;40.61;100619.78;5546897;32;34138;-69
2023/05/25 11:59:50;;;;;;;5.70;3.75;;;;;;;30.84;41.84;100627.72;5546536;32;34101;-70
2023/05/25 12:02:53;;;;;;;9.95;4.32;;;;;;;27.63;48.91;100607.72;5546479;32;35258;-69
2023/05/25 12:05:57;;;;;;;5.62;4.20;;;;;;;26.59;52.09;100603.50;5546494;32;34600;-68
2023/05/25 12:09:07;;;;;;;7.10;3.78;;;;;;;26.60;53.51;100607.03;5546432;32;34037;-69
2023/05/25 12:12:10;;;;;;;4.68;3.20;;;;;;;30.65;44.80;100603.88;5545686;32;34280;-71
2023/05/25 12:15:15;;;;;;;5.80;3.60;;;;;;;35.49;34.95;100605.53;5545737;32;34847;-68
2023/05/25 12:18:23;;;;;;;6.82;3.50;;;;;;;34.31;35.99;100611.50;5546097;32;34322;-69
2023/05/25 12:21:26;;;;;;;6.87;3.30;;;;;;;34.42;35.13;100604.56;5546436;32;34160;-71
2023/05/25 12:24:29;;;;;;;3.67;3.20;;;;;;;35.15;34.03;100611.06;5545742;32;34194;-69
2023/05/25 12:27:32;;;;;;;14.30;3.90;;;;;;;35.73;33.90;100602.22;5546302;32;34487;-71
2023/05/25 12:30:37;;;;;;;5.50;3.30;;;;;;;37.16;31.74;100602.00;5545358;32;33495;-70
2023/05/25 12:33:40;;;;;;;3.95;3.05;;;;;;;34.97;33.25;100601.19;5545881;32;34757;-68
2023/05/25 12:36:49;;;;;;;5.43;3.47;;;;;;;36.55;31.57;100603.63;5527370;32;32749;-69
2023/05/25 12:39:53;;;;;;;6.57;3.25;;;;;;;35.41;33.00;100602.78;5526461;32;34382;-69
2023/05/25 12:42:57;;;;;;;6.78;3.30;;;;;;;36.28;31.49;100601.34;5526803;32;34583;-68
2023/05/25 12:46:01;;;;;;;6.05;3.60;;;;;;;39.49;28.15;100599.53;5525699;32;32761;-68
2023/05/25 12:49:30;;;;;;;5.37;3.20;;;;;;;40.51;26.97;100595.72;5528031;32;35175;-69
2023/05/25 12:52:42;;;;;;;9.10;3.40;;;;;;;36.32;30.84;100589.28;5542019;32;33974;-69
2023/05/25 12:55:48;;;;;;;5.62;3.58;;;;;;;35.08;33.45;100585.94;5547399;32;34869;-68
2023/05/25 12:58:53;;;;;;;5.22;3.30;;;;;;;29.83;41.50;100580.50;5547919;32;34273;-69
2023/05/25 13:01:58;;;;;;;7.32;3.50;;;;;;;27.28;45.92;100580.47;5547470;32;34089;-68
2023/05/25 13:05:03;;;;;;;7.70;3.70;;;;;;;28.05;46.83;100569.16;5546915;32;34097;-71
2023/05/25 13:08:08;;;;;;;9.38;3.70;;;;;;;28.32;46.25;100571.56;5548389;32;34104;-70
2023/05/25 13:11:11;;;;;;;3.80;3.40;;;;;;;27.79;47.27;100559.44;5535538;32;34942;-68
2023/05/25 13:14:15;;;;;;;5.75;3.78;;;;;;;26.71;50.46;100565.97;5535196;32;35075;-68
2023/05/25 13:17:18;;;;;;;7.97;3.30;;;;;;;28.20;47.89;100563.69;5537839;32;33598;-67
2023/05/25 13:20:23;;;;;;;5.93;2.92;;;;;;;30.02;42.83;100559.50;5532827;32;34428;-69
2023/05/25 13:23:27;;;;;;;7.93;3.20;;;;;;;27.96;45.54;100552.56;5543659;32;34804;-68
2023/05/25 13:26:31;;;;;;;8.82;3.65;;;;;;;26.93;48.83;100546.69;5541422;32;34139;-69
2023/05/25 13:29:35;;;;;;;7.35;3.62;;;;;;;29.37;43.67;100539.16;5552599;32;34220;-69
2023/05/25 13:32:42;;;;;;;4.78;3.50;;;;;;;34.14;36.18;100537.03;5547361;32;33973;-70
2023/05/25 13:36:06;;;;;;;5.93;3.67;;;;;;;37.64;30.67;100556.25;5547842;32;34146;-70
2023/05/25 13:39:12;;;;;;;5.00;3.70;;;;;;;35.97;32.52;100541.69;5546670;32;34910;-69
2023/05/25 13:42:17;;;;;;;6.43;3.80;;;;;;;34.92;34.26;100533.25;5547061;32;33800;-71
2023/05/25 13:45:41;;;;;;;5.55;3.22;;;;;;;35.84;33.24;100530.91;5546887;32;34453;-71
2023/05/25 13:49:06;;;;;;;8.60;3.58;;;;;;;37.83;29.72;100523.25;5547206;32;34319;-70
2023/05/25 13:52:30;;;;;;;7.25;3.15;;;;;;;36.13;32.53;100517.09;5534752;32;34274;-70
2023/05/25 13:55:53;;;;;;;4.28;2.95;;;;;;;35.47;32.37;100511.25;5524217;32;34472;-69
2023/05/25 13:58:58;;;;;;;5.43;2.85;;;;;;;36.38;30.93;100510.59;5543900;32;34256;-69
2023/05/25 14:02:02;;;;;;;5.97;2.92;;;;;;;35.05;33.48;100503.88;5544312;32;34113;-69
2023/05/25 14:05:07;;;;;;;4.62;2.67;;;;;;;35.76;31.67;100498.63;5535478;32;34159;-70
2023/05/25 14:08:13;;;;;;;6.35;3.17;;;;;;;32.19;36.59;100497.53;5537564;32;34103;-68
2023/05/25 14:11:19;;;;;;;5.32;3.15;;;;;;;30.54;40.50;100490.12;5535250;32;33660;-69
2023/05/25 14:14:35;;;;;;;11.05;3.70;;;;;;;28.67;43.49;100491.34;5533505;32;34819;-71